sensor_id;sensor_type;location;lat;lon;timestamp;P1;durP1;ratioP1;P2;durP2;ratioP2
42682;SDS011;28293;50.930;3.464;2023-04-03T00:00:13;35.78;;;30.35;;
42682;SDS011;28293;50.930;3.464;2023-04-03T00:02:39;38.30;;;32.08;;
42682;SDS011;28293;50.930;3.464;2023-04-03T00:05:05;39.63;;;31.42;;
42682;SDS011;28293;50.930;3.464;2023-04-03T00:07:31;39.58;;;31.35;;
42682;SDS011;28293;50.930;3.464;2023-04-03T00:09:57;40.92;;;33.25;;
42682;SDS011;28293;50.930;3.464;2023-04-03T00:12:23;36.17;;;30.27;;
42682;SDS011;28293;50.930;3.464;2023-04-03T00:14:49;35.33;;;30.80;;
42682;SDS011;28293;50.930;3.464;2023-04-03T00:17:14;40.88;;;31.80;;
42682;SDS011;28293;50.930;3.464;2023-04-03T00:19:40;35.10;;;30.05;;
42682;SDS011;28293;50.930;3.464;2023-04-03T00:22:06;43.00;;;32.13;;
42682;SDS011;28293;50.930;3.464;2023-04-03T00:24:31;47.63;;;35.50;;
42682;SDS011;28293;50.930;3.464;2023-04-03T00:26:57;50.58;;;37.10;;
42682;SDS011;28293;50.930;3.464;2023-04-03T00:29:23;44.60;;;33.63;;
42682;SDS011;28293;50.930;3.464;2023-04-03T00:31:49;41.05;;;31.10;;
42682;SDS011;28293;50.930;3.464;2023-04-03T00:34:14;39.42;;;31.45;;
42682;SDS011;28293;50.930;3.464;2023-04-03T00:36:40;38.05;;;31.77;;
42682;SDS011;28293;50.930;3.464;2023-04-03T00:39:06;35.40;;;30.10;;
42682;SDS011;28293;50.930;3.464;2023-04-03T00:41:32;36.38;;;28.85;;
42682;SDS011;28293;50.930;3.464;2023-04-03T00:43:57;34.80;;;27.85;;
42682;SDS011;28293;50.930;3.464;2023-04-03T00:46:23;36.10;;;27.92;;
42682;SDS011;28293;50.930;3.464;2023-04-03T00:48:49;36.97;;;28.23;;
42682;SDS011;28293;50.930;3.464;2023-04-03T00:51:23;37.10;;;27.48;;
42682;SDS011;28293;50.930;3.464;2023-04-03T00:53:54;31.65;;;26.60;;
42682;SDS011;28293;50.930;3.464;2023-04-03T00:56:23;33.10;;;25.70;;
42682;SDS011;28293;50.930;3.464;2023-04-03T00:58:56;31.30;;;24.33;;
42682;SDS011;28293;50.930;3.464;2023-04-03T01:01:27;30.65;;;24.40;;
42682;SDS011;28293;50.930;3.464;2023-04-03T01:03:54;26.63;;;22.55;;
42682;SDS011;28293;50.930;3.464;2023-04-03T01:06:21;27.17;;;21.80;;
42682;SDS011;28293;50.930;3.464;2023-04-03T01:08:51;28.35;;;21.40;;
42682;SDS011;28293;50.930;3.464;2023-04-03T01:11:18;27.65;;;21.98;;
42682;SDS011;28293;50.930;3.464;2023-04-03T01:13:45;26.17;;;21.10;;
42682;SDS011;28293;50.930;3.464;2023-04-03T01:16:11;26.05;;;20.63;;
42682;SDS011;28293;50.930;3.464;2023-04-03T01:18:37;24.70;;;19.50;;
42682;SDS011;28293;50.930;3.464;2023-04-03T01:21:11;26.13;;;19.90;;
42682;SDS011;28293;50.930;3.464;2023-04-03T01:23:48;26.77;;;19.70;;
42682;SDS011;28293;50.930;3.464;2023-04-03T01:26:27;23.63;;;19.05;;
42682;SDS011;28293;50.930;3.464;2023-04-03T01:28:53;23.02;;;17.70;;
42682;SDS011;28293;50.930;3.464;2023-04-03T01:34:18;23.83;;;18.55;;
42682;SDS011;28293;50.930;3.464;2023-04-03T01:36:44;24.08;;;17.90;;
42682;SDS011;28293;50.930;3.464;2023-04-03T01:39:10;22.67;;;17.92;;
42682;SDS011;28293;50.930;3.464;2023-04-03T01:41:36;23.77;;;17.67;;
42682;SDS011;28293;50.930;3.464;2023-04-03T01:44:02;21.90;;;17.50;;
42682;SDS011;28293;50.930;3.464;2023-04-03T01:46:29;25.10;;;18.88;;
42682;SDS011;28293;50.930;3.464;2023-04-03T01:48:54;21.50;;;16.60;;
42682;SDS011;28293;50.930;3.464;2023-04-03T01:51:20;25.90;;;18.38;;
42682;SDS011;28293;50.930;3.464;2023-04-03T01:53:46;22.88;;;17.02;;
42682;SDS011;28293;50.930;3.464;2023-04-03T01:56:12;22.00;;;16.85;;
42682;SDS011;28293;50.930;3.464;2023-04-03T01:58:37;21.10;;;16.85;;
42682;SDS011;28293;50.930;3.464;2023-04-03T02:01:04;25.75;;;16.95;;
42682;SDS011;28293;50.930;3.464;2023-04-03T02:03:30;21.98;;;15.73;;
42682;SDS011;28293;50.930;3.464;2023-04-03T02:05:56;23.27;;;17.23;;
42682;SDS011;28293;50.930;3.464;2023-04-03T02:08:22;19.73;;;15.27;;
42682;SDS011;28293;50.930;3.464;2023-04-03T02:10:48;21.63;;;15.88;;
42682;SDS011;28293;50.930;3.464;2023-04-03T02:13:14;20.50;;;14.90;;
42682;SDS011;28293;50.930;3.464;2023-04-03T02:15:41;18.77;;;13.85;;
42682;SDS011;28293;50.930;3.464;2023-04-03T02:18:07;19.27;;;14.40;;
42682;SDS011;28293;50.930;3.464;2023-04-03T02:20:33;16.75;;;13.43;;
42682;SDS011;28293;50.930;3.464;2023-04-03T02:22:59;19.02;;;13.00;;
42682;SDS011;28293;50.930;3.464;2023-04-03T02:25:25;20.08;;;14.73;;
42682;SDS011;28293;50.930;3.464;2023-04-03T02:27:51;18.13;;;12.63;;
42682;SDS011;28293;50.930;3.464;2023-04-03T02:30:17;20.92;;;13.90;;
42682;SDS011;28293;50.930;3.464;2023-04-03T02:32:43;21.20;;;14.18;;
42682;SDS011;28293;50.930;3.464;2023-04-03T02:35:09;19.98;;;14.15;;
42682;SDS011;28293;50.930;3.464;2023-04-03T02:37:36;18.08;;;13.85;;
42682;SDS011;28293;50.930;3.464;2023-04-03T02:40:03;18.70;;;13.65;;
42682;SDS011;28293;50.930;3.464;2023-04-03T02:42:29;17.67;;;12.55;;
42682;SDS011;28293;50.930;3.464;2023-04-03T02:44:55;18.88;;;14.25;;
42682;SDS011;28293;50.930;3.464;2023-04-03T02:47:21;18.27;;;13.45;;
42682;SDS011;28293;50.930;3.464;2023-04-03T02:49:47;20.55;;;14.40;;
42682;SDS011;28293;50.930;3.464;2023-04-03T02:52:13;20.58;;;14.50;;
42682;SDS011;28293;50.930;3.464;2023-04-03T02:54:39;20.65;;;15.27;;
42682;SDS011;28293;50.930;3.464;2023-04-03T02:57:05;21.02;;;15.45;;
42682;SDS011;28293;50.930;3.464;2023-04-03T02:59:33;20.35;;;14.93;;
42682;SDS011;28293;50.930;3.464;2023-04-03T03:02:00;19.10;;;13.60;;
42682;SDS011;28293;50.930;3.464;2023-04-03T03:04:26;22.75;;;13.77;;
42682;SDS011;28293;50.930;3.464;2023-04-03T03:06:51;23.63;;;14.82;;
42682;SDS011;28293;50.930;3.464;2023-04-03T03:09:17;20.25;;;14.25;;
42682;SDS011;28293;50.930;3.464;2023-04-03T03:11:43;20.10;;;14.18;;
42682;SDS011;28293;50.930;3.464;2023-04-03T03:14:09;19.60;;;14.02;;
42682;SDS011;28293;50.930;3.464;2023-04-03T03:16:35;19.73;;;14.98;;
42682;SDS011;28293;50.930;3.464;2023-04-03T03:19:01;20.23;;;14.88;;
42682;SDS011;28293;50.930;3.464;2023-04-03T03:21:27;21.05;;;15.68;;
42682;SDS011;28293;50.930;3.464;2023-04-03T03:23:52;20.98;;;15.43;;
42682;SDS011;28293;50.930;3.464;2023-04-03T03:26:18;20.73;;;14.48;;
42682;SDS011;28293;50.930;3.464;2023-04-03T03:28:44;19.38;;;14.77;;
42682;SDS011;28293;50.930;3.464;2023-04-03T03:31:10;18.77;;;14.27;;
42682;SDS011;28293;50.930;3.464;2023-04-03T03:33:37;19.00;;;13.45;;
42682;SDS011;28293;50.930;3.464;2023-04-03T03:36:03;17.42;;;13.32;;
42682;SDS011;28293;50.930;3.464;2023-04-03T03:38:29;19.38;;;13.93;;
42682;SDS011;28293;50.930;3.464;2023-04-03T03:40:54;19.83;;;14.13;;
42682;SDS011;28293;50.930;3.464;2023-04-03T03:43:20;17.58;;;14.10;;
42682;SDS011;28293;50.930;3.464;2023-04-03T03:45:49;18.73;;;13.90;;
42682;SDS011;28293;50.930;3.464;2023-04-03T03:48:19;19.92;;;14.65;;
42682;SDS011;28293;50.930;3.464;2023-04-03T03:50:46;20.90;;;14.25;;
42682;SDS011;28293;50.930;3.464;2023-04-03T03:53:12;20.15;;;15.10;;
42682;SDS011;28293;50.930;3.464;2023-04-03T03:55:38;19.60;;;14.05;;
42682;SDS011;28293;50.930;3.464;2023-04-03T03:58:04;20.25;;;13.85;;
42682;SDS011;28293;50.930;3.464;2023-04-03T04:00:30;18.05;;;13.88;;
42682;SDS011;28293;50.930;3.464;2023-04-03T04:02:55;17.45;;;13.82;;
42682;SDS011;28293;50.930;3.464;2023-04-03T04:05:21;18.13;;;14.38;;
42682;SDS011;28293;50.930;3.464;2023-04-03T04:07:47;18.70;;;14.40;;
42682;SDS011;28293;50.930;3.464;2023-04-03T04:10:13;19.52;;;15.52;;
42682;SDS011;28293;50.930;3.464;2023-04-03T04:12:39;19.02;;;14.45;;
42682;SDS011;28293;50.930;3.464;2023-04-03T04:15:05;18.20;;;14.23;;
42682;SDS011;28293;50.930;3.464;2023-04-03T04:17:31;19.08;;;13.90;;
42682;SDS011;28293;50.930;3.464;2023-04-03T04:19:57;22.52;;;14.57;;
42682;SDS011;28293;50.930;3.464;2023-04-03T04:22:22;21.70;;;15.75;;
42682;SDS011;28293;50.930;3.464;2023-04-03T04:24:48;19.30;;;14.05;;
42682;SDS011;28293;50.930;3.464;2023-04-03T04:27:14;18.63;;;14.15;;
42682;SDS011;28293;50.930;3.464;2023-04-03T04:29:41;19.50;;;15.15;;
42682;SDS011;28293;50.930;3.464;2023-04-03T04:32:06;18.10;;;14.43;;
42682;SDS011;28293;50.930;3.464;2023-04-03T04:34:33;17.80;;;13.38;;
42682;SDS011;28293;50.930;3.464;2023-04-03T04:36:59;18.33;;;15.55;;
42682;SDS011;28293;50.930;3.464;2023-04-03T04:39:25;20.70;;;15.48;;
42682;SDS011;28293;50.930;3.464;2023-04-03T04:41:51;20.25;;;15.15;;
42682;SDS011;28293;50.930;3.464;2023-04-03T04:44:16;18.45;;;15.00;;
42682;SDS011;28293;50.930;3.464;2023-04-03T04:46:42;20.25;;;15.73;;
42682;SDS011;28293;50.930;3.464;2023-04-03T04:49:08;20.77;;;14.90;;
42682;SDS011;28293;50.930;3.464;2023-04-03T04:51:34;20.45;;;15.40;;
42682;SDS011;28293;50.930;3.464;2023-04-03T04:54:00;19.25;;;14.90;;
42682;SDS011;28293;50.930;3.464;2023-04-03T04:56:25;22.08;;;14.93;;
42682;SDS011;28293;50.930;3.464;2023-04-03T04:58:51;18.77;;;15.25;;
42682;SDS011;28293;50.930;3.464;2023-04-03T05:01:17;22.08;;;16.13;;
42682;SDS011;28293;50.930;3.464;2023-04-03T05:03:43;18.35;;;15.30;;
42682;SDS011;28293;50.930;3.464;2023-04-03T05:06:09;20.92;;;15.02;;
42682;SDS011;28293;50.930;3.464;2023-04-03T05:08:35;20.67;;;15.68;;
42682;SDS011;28293;50.930;3.464;2023-04-03T05:11:01;20.23;;;14.82;;
42682;SDS011;28293;50.930;3.464;2023-04-03T05:13:26;19.05;;;14.35;;
42682;SDS011;28293;50.930;3.464;2023-04-03T05:15:52;21.08;;;16.33;;
42682;SDS011;28293;50.930;3.464;2023-04-03T05:18:18;19.05;;;15.43;;
42682;SDS011;28293;50.930;3.464;2023-04-03T05:20:43;18.70;;;14.88;;
42682;SDS011;28293;50.930;3.464;2023-04-03T05:23:10;18.75;;;14.52;;
42682;SDS011;28293;50.930;3.464;2023-04-03T05:25:39;18.35;;;14.13;;
42682;SDS011;28293;50.930;3.464;2023-04-03T05:28:05;19.25;;;14.60;;
42682;SDS011;28293;50.930;3.464;2023-04-03T05:30:31;17.80;;;14.30;;
42682;SDS011;28293;50.930;3.464;2023-04-03T05:32:58;18.23;;;14.32;;
42682;SDS011;28293;50.930;3.464;2023-04-03T05:35:24;20.77;;;15.63;;
42682;SDS011;28293;50.930;3.464;2023-04-03T05:37:50;16.88;;;14.55;;
42682;SDS011;28293;50.930;3.464;2023-04-03T05:40:16;19.95;;;15.38;;
42682;SDS011;28293;50.930;3.464;2023-04-03T05:42:43;16.83;;;13.85;;
42682;SDS011;28293;50.930;3.464;2023-04-03T05:45:09;17.50;;;14.82;;
42682;SDS011;28293;50.930;3.464;2023-04-03T05:47:35;18.52;;;14.73;;
42682;SDS011;28293;50.930;3.464;2023-04-03T05:50:01;24.85;;;15.15;;
42682;SDS011;28293;50.930;3.464;2023-04-03T05:52:28;22.42;;;16.85;;
42682;SDS011;28293;50.930;3.464;2023-04-03T05:54:55;19.95;;;16.50;;
42682;SDS011;28293;50.930;3.464;2023-04-03T05:57:22;22.70;;;16.27;;
42682;SDS011;28293;50.930;3.464;2023-04-03T05:59:48;21.05;;;15.27;;
42682;SDS011;28293;50.930;3.464;2023-04-03T06:02:15;22.55;;;16.75;;
42682;SDS011;28293;50.930;3.464;2023-04-03T06:04:46;18.67;;;14.75;;
42682;SDS011;28293;50.930;3.464;2023-04-03T06:07:16;21.08;;;15.90;;
42682;SDS011;28293;50.930;3.464;2023-04-03T06:09:48;19.27;;;15.50;;
42682;SDS011;28293;50.930;3.464;2023-04-03T06:12:16;15.95;;;14.20;;
42682;SDS011;28293;50.930;3.464;2023-04-03T06:14:42;19.55;;;16.67;;
42682;SDS011;28293;50.930;3.464;2023-04-03T06:17:08;20.50;;;17.42;;
42682;SDS011;28293;50.930;3.464;2023-04-03T06:19:34;24.27;;;16.80;;
42682;SDS011;28293;50.930;3.464;2023-04-03T06:22:00;19.77;;;16.42;;
42682;SDS011;28293;50.930;3.464;2023-04-03T06:24:26;18.17;;;16.17;;
42682;SDS011;28293;50.930;3.464;2023-04-03T06:26:52;19.65;;;16.10;;
42682;SDS011;28293;50.930;3.464;2023-04-03T06:29:21;20.92;;;15.45;;
42682;SDS011;28293;50.930;3.464;2023-04-03T06:31:47;18.00;;;14.93;;
42682;SDS011;28293;50.930;3.464;2023-04-03T06:34:14;20.75;;;14.82;;
42682;SDS011;28293;50.930;3.464;2023-04-03T06:36:41;17.75;;;13.68;;
42682;SDS011;28293;50.930;3.464;2023-04-03T06:39:09;20.52;;;16.25;;
42682;SDS011;28293;50.930;3.464;2023-04-03T06:41:38;28.85;;;16.08;;
42682;SDS011;28293;50.930;3.464;2023-04-03T06:44:04;26.17;;;15.52;;
42682;SDS011;28293;50.930;3.464;2023-04-03T06:46:30;26.02;;;15.27;;
42682;SDS011;28293;50.930;3.464;2023-04-03T06:48:56;21.13;;;15.65;;
42682;SDS011;28293;50.930;3.464;2023-04-03T06:51:22;18.50;;;15.15;;
42682;SDS011;28293;50.930;3.464;2023-04-03T06:53:51;18.65;;;14.07;;
42682;SDS011;28293;50.930;3.464;2023-04-03T06:56:18;18.40;;;13.95;;
42682;SDS011;28293;50.930;3.464;2023-04-03T06:58:44;18.98;;;15.13;;
42682;SDS011;28293;50.930;3.464;2023-04-03T07:01:11;17.83;;;15.02;;
42682;SDS011;28293;50.930;3.464;2023-04-03T07:03:38;20.40;;;15.45;;
42682;SDS011;28293;50.930;3.464;2023-04-03T07:06:05;22.80;;;15.48;;
42682;SDS011;28293;50.930;3.464;2023-04-03T07:08:32;20.30;;;13.70;;
42682;SDS011;28293;50.930;3.464;2023-04-03T07:10:58;18.38;;;13.32;;
42682;SDS011;28293;50.930;3.464;2023-04-03T07:13:24;20.20;;;14.20;;
42682;SDS011;28293;50.930;3.464;2023-04-03T07:15:50;15.43;;;13.10;;
42682;SDS011;28293;50.930;3.464;2023-04-03T07:18:16;21.95;;;14.52;;
42682;SDS011;28293;50.930;3.464;2023-04-03T07:20:44;19.40;;;14.18;;
42682;SDS011;28293;50.930;3.464;2023-04-03T07:23:10;19.42;;;15.70;;
42682;SDS011;28293;50.930;3.464;2023-04-03T07:25:36;20.08;;;14.80;;
42682;SDS011;28293;50.930;3.464;2023-04-03T07:28:07;17.67;;;12.73;;
42682;SDS011;28293;50.930;3.464;2023-04-03T07:30:33;15.52;;;12.13;;
42682;SDS011;28293;50.930;3.464;2023-04-03T07:32:58;17.05;;;14.00;;
42682;SDS011;28293;50.930;3.464;2023-04-03T07:35:24;16.58;;;12.73;;
42682;SDS011;28293;50.930;3.464;2023-04-03T07:37:50;16.45;;;11.70;;
42682;SDS011;28293;50.930;3.464;2023-04-03T07:40:16;17.15;;;12.02;;
42682;SDS011;28293;50.930;3.464;2023-04-03T07:42:42;17.85;;;13.32;;
42682;SDS011;28293;50.930;3.464;2023-04-03T07:45:07;16.45;;;10.95;;
42682;SDS011;28293;50.930;3.464;2023-04-03T07:47:34;15.50;;;11.00;;
42682;SDS011;28293;50.930;3.464;2023-04-03T07:50:00;17.23;;;10.98;;
42682;SDS011;28293;50.930;3.464;2023-04-03T07:52:25;14.18;;;10.65;;
42682;SDS011;28293;50.930;3.464;2023-04-03T07:54:51;21.45;;;12.70;;
42682;SDS011;28293;50.930;3.464;2023-04-03T07:57:17;20.17;;;12.75;;
42682;SDS011;28293;50.930;3.464;2023-04-03T07:59:42;14.93;;;11.02;;
42682;SDS011;28293;50.930;3.464;2023-04-03T08:02:11;17.00;;;10.60;;
42682;SDS011;28293;50.930;3.464;2023-04-03T08:04:37;18.08;;;11.38;;
42682;SDS011;28293;50.930;3.464;2023-04-03T08:07:03;15.02;;;10.15;;
42682;SDS011;28293;50.930;3.464;2023-04-03T08:09:29;13.68;;;9.00;;
42682;SDS011;28293;50.930;3.464;2023-04-03T08:11:56;13.75;;;8.48;;
42682;SDS011;28293;50.930;3.464;2023-04-03T08:14:22;15.68;;;8.85;;
42682;SDS011;28293;50.930;3.464;2023-04-03T08:16:48;10.90;;;9.20;;
42682;SDS011;28293;50.930;3.464;2023-04-03T08:19:15;16.08;;;9.13;;
42682;SDS011;28293;50.930;3.464;2023-04-03T08:21:43;12.93;;;8.88;;
42682;SDS011;28293;50.930;3.464;2023-04-03T08:24:10;11.18;;;8.23;;
42682;SDS011;28293;50.930;3.464;2023-04-03T08:26:36;13.15;;;7.80;;
42682;SDS011;28293;50.930;3.464;2023-04-03T08:29:02;14.00;;;8.38;;
42682;SDS011;28293;50.930;3.464;2023-04-03T08:31:28;12.70;;;8.48;;
42682;SDS011;28293;50.930;3.464;2023-04-03T08:33:53;12.05;;;8.02;;
42682;SDS011;28293;50.930;3.464;2023-04-03T08:36:23;10.02;;;8.00;;
42682;SDS011;28293;50.930;3.464;2023-04-03T08:38:51;12.80;;;8.75;;
42682;SDS011;28293;50.930;3.464;2023-04-03T08:49:26;11.80;;;9.13;;
42682;SDS011;28293;50.930;3.464;2023-04-03T08:51:56;13.30;;;9.40;;
42682;SDS011;28293;50.930;3.464;2023-04-03T08:54:48;13.68;;;9.50;;
42682;SDS011;28293;50.930;3.464;2023-04-03T08:57:16;14.43;;;9.13;;
42682;SDS011;28293;50.930;3.464;2023-04-03T08:59:45;14.05;;;10.57;;
42682;SDS011;28293;50.930;3.464;2023-04-03T09:05:01;15.95;;;11.55;;
42682;SDS011;28293;50.930;3.464;2023-04-03T09:07:33;15.38;;;12.13;;
42682;SDS011;28293;50.930;3.464;2023-04-03T09:10:13;19.98;;;12.77;;
42682;SDS011;28293;50.930;3.464;2023-04-03T09:12:41;15.45;;;12.75;;
42682;SDS011;28293;50.930;3.464;2023-04-03T09:15:17;17.33;;;13.07;;
42682;SDS011;28293;50.930;3.464;2023-04-03T09:23:50;14.57;;;10.95;;
42682;SDS011;28293;50.930;3.464;2023-04-03T09:29:08;10.02;;;5.88;;
42682;SDS011;28293;50.930;3.464;2023-04-03T09:31:44;10.38;;;4.90;;
42682;SDS011;28293;50.930;3.464;2023-04-03T09:34:23;10.35;;;5.85;;
42682;SDS011;28293;50.930;3.464;2023-04-03T09:36:56;8.85;;;5.03;;
42682;SDS011;28293;50.930;3.464;2023-04-03T09:39:25;7.80;;;3.85;;
42682;SDS011;28293;50.930;3.464;2023-04-03T09:42:00;8.10;;;3.42;;
42682;SDS011;28293;50.930;3.464;2023-04-03T09:44:36;8.70;;;3.63;;
42682;SDS011;28293;50.930;3.464;2023-04-03T09:47:21;8.20;;;3.90;;
42682;SDS011;28293;50.930;3.464;2023-04-03T09:49:49;9.38;;;4.20;;
42682;SDS011;28293;50.930;3.464;2023-04-03T09:52:18;8.98;;;3.70;;
42682;SDS011;28293;50.930;3.464;2023-04-03T09:54:47;7.95;;;3.60;;
42682;SDS011;28293;50.930;3.464;2023-04-03T09:57:13;9.80;;;3.83;;
42682;SDS011;28293;50.930;3.464;2023-04-03T10:00:19;9.85;;;4.20;;
42682;SDS011;28293;50.930;3.464;2023-04-03T10:02:44;9.63;;;4.15;;
42682;SDS011;28293;50.930;3.464;2023-04-03T10:08:11;9.75;;;4.55;;
42682;SDS011;28293;50.930;3.464;2023-04-03T10:10:44;9.20;;;3.92;;
42682;SDS011;28293;50.930;3.464;2023-04-03T10:13:29;8.73;;;3.65;;
42682;SDS011;28293;50.930;3.464;2023-04-03T10:15:56;7.47;;;4.05;;
42682;SDS011;28293;50.930;3.464;2023-04-03T10:21:32;7.05;;;4.05;;
42682;SDS011;28293;50.930;3.464;2023-04-03T10:27:00;6.32;;;3.42;;
42682;SDS011;28293;50.930;3.464;2023-04-03T10:29:40;8.93;;;4.90;;
42682;SDS011;28293;50.930;3.464;2023-04-03T10:34:43;7.70;;;4.05;;
42682;SDS011;28293;50.930;3.464;2023-04-03T10:39:46;8.00;;;4.10;;
42682;SDS011;28293;50.930;3.464;2023-04-03T10:42:28;10.38;;;4.22;;
42682;SDS011;28293;50.930;3.464;2023-04-03T10:57:04;8.15;;;3.80;;
42682;SDS011;28293;50.930;3.464;2023-04-03T11:04:56;7.80;;;4.05;;
42682;SDS011;28293;50.930;3.464;2023-04-03T11:07:46;6.75;;;3.58;;
42682;SDS011;28293;50.930;3.464;2023-04-03T11:10:21;8.05;;;3.97;;
42682;SDS011;28293;50.930;3.464;2023-04-03T11:12:58;7.95;;;4.10;;
42682;SDS011;28293;50.930;3.464;2023-04-03T11:15:34;6.55;;;3.58;;
42682;SDS011;28293;50.930;3.464;2023-04-03T11:18:02;9.02;;;4.28;;
42682;SDS011;28293;50.930;3.464;2023-04-03T11:20:32;8.50;;;3.92;;
42682;SDS011;28293;50.930;3.464;2023-04-03T11:25:59;8.65;;;3.60;;
42682;SDS011;28293;50.930;3.464;2023-04-03T11:28:32;8.27;;;3.70;;
42682;SDS011;28293;50.930;3.464;2023-04-03T11:36:22;8.63;;;3.30;;
42682;SDS011;28293;50.930;3.464;2023-04-03T11:38:47;8.07;;;3.20;;
42682;SDS011;28293;50.930;3.464;2023-04-03T11:41:16;8.35;;;3.40;;
42682;SDS011;28293;50.930;3.464;2023-04-03T11:43:56;8.18;;;2.97;;
42682;SDS011;28293;50.930;3.464;2023-04-03T11:46:55;7.93;;;2.90;;
42682;SDS011;28293;50.930;3.464;2023-04-03T12:37:08;6.55;;;2.88;;
42682;SDS011;28293;50.930;3.464;2023-04-03T12:45:37;6.40;;;2.65;;
42682;SDS011;28293;50.930;3.464;2023-04-03T12:48:26;8.93;;;3.22;;
42682;SDS011;28293;50.930;3.464;2023-04-03T12:50:54;6.97;;;2.47;;
42682;SDS011;28293;50.930;3.464;2023-04-03T12:53:26;7.65;;;3.10;;
42682;SDS011;28293;50.930;3.464;2023-04-03T12:56:18;6.00;;;2.47;;
42682;SDS011;28293;50.930;3.464;2023-04-03T12:58:43;7.53;;;2.60;;
42682;SDS011;28293;50.930;3.464;2023-04-03T13:01:10;5.25;;;2.70;;
42682;SDS011;28293;50.930;3.464;2023-04-03T13:03:39;6.00;;;2.92;;
42682;SDS011;28293;50.930;3.464;2023-04-03T13:06:14;6.93;;;3.25;;
42682;SDS011;28293;50.930;3.464;2023-04-03T13:08:54;6.15;;;2.63;;
42682;SDS011;28293;50.930;3.464;2023-04-03T13:11:25;8.10;;;3.15;;
42682;SDS011;28293;50.930;3.464;2023-04-03T13:13:58;6.30;;;2.72;;
42682;SDS011;28293;50.930;3.464;2023-04-03T13:16:26;5.55;;;2.50;;
42682;SDS011;28293;50.930;3.464;2023-04-03T13:18:53;5.63;;;2.53;;
42682;SDS011;28293;50.930;3.464;2023-04-03T13:21:21;4.47;;;2.38;;
42682;SDS011;28293;50.930;3.464;2023-04-03T13:23:56;9.18;;;3.50;;
42682;SDS011;28293;50.930;3.464;2023-04-03T13:26:25;7.93;;;2.60;;
42682;SDS011;28293;50.930;3.464;2023-04-03T13:28:59;7.75;;;2.92;;
42682;SDS011;28293;50.930;3.464;2023-04-03T13:34:12;6.13;;;2.78;;
42682;SDS011;28293;50.930;3.464;2023-04-03T13:36:43;5.80;;;2.42;;
42682;SDS011;28293;50.930;3.464;2023-04-03T13:39:22;5.10;;;2.30;;
42682;SDS011;28293;50.930;3.464;2023-04-03T13:41:53;5.10;;;2.55;;
42682;SDS011;28293;50.930;3.464;2023-04-03T13:46:46;6.80;;;2.65;;
42682;SDS011;28293;50.930;3.464;2023-04-03T13:49:27;6.25;;;2.47;;
42682;SDS011;28293;50.930;3.464;2023-04-03T13:51:59;5.45;;;2.47;;
42682;SDS011;28293;50.930;3.464;2023-04-03T13:54:35;6.28;;;2.65;;
42682;SDS011;28293;50.930;3.464;2023-04-03T13:57:10;6.40;;;2.42;;
42682;SDS011;28293;50.930;3.464;2023-04-03T13:59:41;6.30;;;2.45;;
42682;SDS011;28293;50.930;3.464;2023-04-03T14:07:05;4.72;;;2.50;;
42682;SDS011;28293;50.930;3.464;2023-04-03T14:09:31;7.55;;;2.47;;
42682;SDS011;28293;50.930;3.464;2023-04-03T14:11:58;5.25;;;2.50;;
42682;SDS011;28293;50.930;3.464;2023-04-03T14:14:30;3.42;;;1.95;;
42682;SDS011;28293;50.930;3.464;2023-04-03T14:16:59;4.55;;;2.10;;
42682;SDS011;28293;50.930;3.464;2023-04-03T14:19:27;3.25;;;2.00;;
42682;SDS011;28293;50.930;3.464;2023-04-03T14:21:55;5.63;;;2.03;;
42682;SDS011;28293;50.930;3.464;2023-04-03T14:24:22;5.85;;;2.55;;
42682;SDS011;28293;50.930;3.464;2023-04-03T14:26:50;4.65;;;2.10;;
42682;SDS011;28293;50.930;3.464;2023-04-03T14:29:17;6.43;;;2.40;;
42682;SDS011;28293;50.930;3.464;2023-04-03T14:31:44;6.78;;;2.30;;
42682;SDS011;28293;50.930;3.464;2023-04-03T14:34:11;3.95;;;2.10;;
42682;SDS011;28293;50.930;3.464;2023-04-03T14:36:38;4.32;;;2.13;;
42682;SDS011;28293;50.930;3.464;2023-04-03T14:39:06;5.10;;;1.80;;
42682;SDS011;28293;50.930;3.464;2023-04-03T14:41:33;4.22;;;2.00;;
42682;SDS011;28293;50.930;3.464;2023-04-03T14:43:59;4.82;;;2.00;;
42682;SDS011;28293;50.930;3.464;2023-04-03T14:46:27;5.00;;;1.75;;
42682;SDS011;28293;50.930;3.464;2023-04-03T14:48:56;4.85;;;1.98;;
42682;SDS011;28293;50.930;3.464;2023-04-03T14:51:22;3.22;;;1.80;;
42682;SDS011;28293;50.930;3.464;2023-04-03T14:53:48;6.22;;;2.50;;
42682;SDS011;28293;50.930;3.464;2023-04-03T14:58:48;6.05;;;2.20;;
42682;SDS011;28293;50.930;3.464;2023-04-03T15:01:17;6.45;;;2.33;;
42682;SDS011;28293;50.930;3.464;2023-04-03T15:03:43;7.40;;;2.63;;
42682;SDS011;28293;50.930;3.464;2023-04-03T15:06:10;3.63;;;1.63;;
42682;SDS011;28293;50.930;3.464;2023-04-03T15:08:37;4.78;;;2.38;;
42682;SDS011;28293;50.930;3.464;2023-04-03T15:11:03;5.75;;;2.35;;
42682;SDS011;28293;50.930;3.464;2023-04-03T15:13:29;7.68;;;3.15;;
42682;SDS011;28293;50.930;3.464;2023-04-03T15:15:55;4.93;;;2.40;;
42682;SDS011;28293;50.930;3.464;2023-04-03T15:18:24;5.07;;;2.22;;
42682;SDS011;28293;50.930;3.464;2023-04-03T15:20:52;8.30;;;3.30;;
42682;SDS011;28293;50.930;3.464;2023-04-03T15:23:19;7.55;;;2.70;;
42682;SDS011;28293;50.930;3.464;2023-04-03T15:25:45;10.63;;;4.03;;
42682;SDS011;28293;50.930;3.464;2023-04-03T15:28:17;5.05;;;2.25;;
42682;SDS011;28293;50.930;3.464;2023-04-03T15:30:53;9.60;;;3.15;;
42682;SDS011;28293;50.930;3.464;2023-04-03T15:33:18;7.60;;;2.78;;
42682;SDS011;28293;50.930;3.464;2023-04-03T15:35:44;5.88;;;2.50;;
42682;SDS011;28293;50.930;3.464;2023-04-03T15:38:10;5.68;;;2.58;;
42682;SDS011;28293;50.930;3.464;2023-04-03T15:40:36;8.80;;;3.30;;
42682;SDS011;28293;50.930;3.464;2023-04-03T15:43:03;6.32;;;2.80;;
42682;SDS011;28293;50.930;3.464;2023-04-03T15:45:29;5.50;;;2.60;;
42682;SDS011;28293;50.930;3.464;2023-04-03T15:47:56;5.32;;;2.70;;
42682;SDS011;28293;50.930;3.464;2023-04-03T15:50:23;4.32;;;2.15;;
42682;SDS011;28293;50.930;3.464;2023-04-03T15:52:49;5.20;;;2.42;;
42682;SDS011;28293;50.930;3.464;2023-04-03T15:55:22;6.65;;;3.00;;
42682;SDS011;28293;50.930;3.464;2023-04-03T15:57:48;5.22;;;2.10;;
42682;SDS011;28293;50.930;3.464;2023-04-03T16:00:14;5.10;;;2.15;;
42682;SDS011;28293;50.930;3.464;2023-04-03T16:02:41;6.45;;;2.67;;
42682;SDS011;28293;50.930;3.464;2023-04-03T16:05:10;8.75;;;2.60;;
42682;SDS011;28293;50.930;3.464;2023-04-03T16:07:38;4.55;;;2.08;;
42682;SDS011;28293;50.930;3.464;2023-04-03T16:10:05;6.25;;;2.53;;
42682;SDS011;28293;50.930;3.464;2023-04-03T16:12:32;4.63;;;2.53;;
42682;SDS011;28293;50.930;3.464;2023-04-03T16:14:58;6.22;;;2.80;;
42682;SDS011;28293;50.930;3.464;2023-04-03T16:17:24;5.18;;;2.60;;
42682;SDS011;28293;50.930;3.464;2023-04-03T16:19:51;4.43;;;2.00;;
42682;SDS011;28293;50.930;3.464;2023-04-03T16:22:18;4.90;;;2.72;;
42682;SDS011;28293;50.930;3.464;2023-04-03T16:24:44;5.40;;;2.33;;
42682;SDS011;28293;50.930;3.464;2023-04-03T16:27:10;7.20;;;2.50;;
42682;SDS011;28293;50.930;3.464;2023-04-03T16:29:36;4.97;;;2.35;;
42682;SDS011;28293;50.930;3.464;2023-04-03T16:32:02;5.13;;;2.70;;
42682;SDS011;28293;50.930;3.464;2023-04-03T16:34:28;7.25;;;2.58;;
42682;SDS011;28293;50.930;3.464;2023-04-03T16:36:56;5.45;;;2.50;;
42682;SDS011;28293;50.930;3.464;2023-04-03T16:39:21;5.38;;;2.33;;
42682;SDS011;28293;50.930;3.464;2023-04-03T16:41:47;7.47;;;2.55;;
42682;SDS011;28293;50.930;3.464;2023-04-03T16:44:13;6.43;;;2.92;;